CDT,Max TemperatureF,Mean TemperatureF,Min TemperatureF,Max Dew PointF,MeanDew PointF,Min DewpointF,Max Humidity, Mean Humidity, Min Humidity, Max Sea Level PressureIn, Mean Sea Level PressureIn, Min Sea Level PressureIn, Max VisibilityMiles, Mean VisibilityMiles, Min VisibilityMiles, Max Wind SpeedMPH, Mean Wind SpeedMPH, Max Gust SpeedMPH,PrecipitationIn, CloudCover, Events, WindDirDegrees
2013-10-1,66,56,46,54,41,34,100,60,30,29.87,29.68,29.49,10,10,9,36,17,46,0.00,0,Rain,258
2013-10-2,59,48,37,48,43,36,100,83,59,30.01,29.95,29.87,10,10,6,10,7,,0.00,3,Rain,207
2013-10-3,55,45,35,46,40,36,100,81,54,30.19,30.06,29.97,10,9,0,18,8,24,0.00,0,Fog,344
2013-10-4,42,40,37,39,34,30,93,80,65,30.31,30.25,30.17,10,9,3,24,17,33,0.00,5,Rain-Snow,7
2013-10-5,44,40,37,43,39,36,100,94,76,30.17,30.02,29.95,10,8,2,30,16,39,0.00,8,Rain-Snow,12
2013-10-6,66,48,30,46,38,30,100,74,42,29.96,29.87,29.80,10,10,9,15,8,21,0.00,1,,290
2013-10-7,62,48,35,45,40,36,100,75,45,29.96,29.87,29.73,10,10,10,13,7,16,0.00,0,Rain,209
2013-10-8,64,52,41,54,45,39,100,80,56,29.75,29.64,29.56,10,10,8,14,8,18,0.00,0,,182
2013-10-9,68,54,39,48,43,37,100,71,37,30.00,29.93,29.76,10,10,8,8,4,,0.00,0,,305
2013-10-10,68,56,44,54,48,39,94,79,59,29.98,29.83,29.68,10,9,3,12,6,16,0.00,0,,54
2013-10-11,68,62,55,61,55,52,100,87,64,29.69,29.51,29.25,10,9,2,29,11,36,0.00,3,Rain-Thunderstorm,136
2013-10-12,55,46,37,54,42,32,100,80,54,30.16,29.73,29.28,10,10,2,24,16,32,0.00,5,Rain,291
2013-10-13,55,44,32,37,33,28,100,74,38,30.37,30.30,30.16,10,10,10,12,6,16,0.00,0,,253
2013-10-14,44,40,35,45,42,34,100,98,87,30.37,30.28,30.19,10,6,2,15,6,21,0.00,7,Rain,63
2013-10-15,46,39,32,43,37,30,100,90,66,30.20,30.09,30.02,10,9,3,22,14,28,0.00,4,Rain,351
2013-10-16,59,42,26,45,36,27,100,82,51,30.01,29.85,29.78,10,10,7,13,7,18,0.00,1,,254
2013-10-17,48,40,33,41,33,27,87,70,43,29.96,29.92,29.83,10,10,8,18,13,25,0.00,5,Rain,326
2013-10-18,46,37,28,36,32,27,100,83,57,29.93,29.86,29.72,10,10,9,16,8,21,0.00,3,Rain,264
2013-10-19,41,36,32,36,32,28,100,87,61,29.77,29.73,29.70,10,10,5,15,9,20,0.00,7,Rain-Snow,308
2013-10-20,37,34,32,36,29,21,100,84,60,29.96,29.81,29.67,10,8,3,24,10,30,0.00,8,Rain-Snow,345
2013-10-21,35,30,26,28,24,19,87,74,65,30.00,29.96,29.94,10,10,10,18,13,25,0.00,6,,315
2013-10-22,37,34,32,32,27,23,93,79,65,30.09,30.05,30.00,10,10,2,12,8,,0.00,8,Rain-Snow,322
2013-10-23,37,32,26,34,27,23,100,80,65,30.15,30.10,30.04,10,10,7,13,6,,0.00,7,Rain,318
2013-10-24,41,34,28,32,29,27,100,80,57,30.26,30.23,30.16,10,10,10,16,9,21,0.00,6,Rain,293
2013-10-25,57,42,26,37,30,27,100,71,38,30.21,29.91,29.69,10,10,10,28,14,39,0.00,2,,257
2013-10-26,41,34,28,30,27,25,93,69,56,30.17,30.05,29.81,10,10,9,20,13,26,0.00,4,,291
2013-10-27,41,32,24,32,26,16,93,72,56,30.42,29.99,29.69,10,10,10,28,14,38,0.00,2,,352
2013-10-28,32,24,17,18,16,12,86,71,48,30.62,30.54,30.42,10,10,8,15,10,20,0.00,2,,13
2013-10-29,37,26,15,21,17,14,93,71,45,30.51,30.28,30.11,10,10,8,8,4,,0.00,1,,216
2013-10-30,41,32,24,34,28,19,93,77,65,30.11,29.90,29.66,10,10,9,12,5,,0.00,8,,187
2013-10-31,48,40,30,36,33,28,100,80,54,29.65,29.50,29.42,10,10,7,13,7,,0.00,4,,259